createdAt,value
2022-10-27T00:02:02.846Z,20.75
2022-10-27T00:04:29.434Z,20.72
2022-10-27T00:06:56.026Z,20.72
2022-10-27T00:09:22.692Z,20.72
2022-10-27T00:11:49.502Z,20.70
2022-10-27T00:14:16.105Z,20.68
2022-10-27T00:16:42.780Z,20.67
2022-10-27T00:19:09.362Z,20.65
2022-10-27T00:21:35.962Z,20.65
2022-10-27T00:24:02.590Z,20.64
2022-10-27T00:26:29.174Z,20.63
2022-10-27T00:28:55.759Z,20.62
2022-10-27T00:31:22.820Z,20.60
2022-10-27T00:33:50.270Z,20.60
2022-10-27T00:36:19.578Z,20.58
2022-10-27T00:38:46.813Z,20.57
2022-10-27T00:41:43.586Z,20.57
2022-10-27T00:44:39.682Z,20.56
2022-10-27T00:47:20.025Z,20.55
2022-10-27T00:50:03.663Z,20.54
2022-10-27T00:52:51.981Z,20.52
2022-10-27T00:55:22.954Z,20.52
2022-10-27T00:57:54.298Z,20.52
2022-10-27T01:00:21.407Z,20.50
2022-10-27T01:02:49.923Z,20.48
2022-10-27T01:05:22.798Z,20.48
2022-10-27T01:07:50.701Z,20.47
2022-10-27T01:10:18.727Z,20.46
2022-10-27T01:12:46.715Z,20.44
2022-10-27T01:15:14.662Z,20.44
2022-10-27T01:18:01.343Z,20.43
2022-10-27T01:21:10.551Z,20.43
2022-10-27T01:23:58.526Z,20.40
2022-10-27T01:26:45.917Z,20.40
2022-10-27T01:29:38.511Z,20.39
2022-10-27T01:32:18.600Z,20.39
2022-10-27T01:35:07.453Z,20.37
2022-10-27T01:37:48.962Z,20.38
2022-10-27T01:40:54.877Z,20.37
2022-10-27T01:43:27.469Z,20.35
2022-10-27T01:45:56.158Z,20.36
2022-10-27T01:48:23.914Z,20.35
2022-10-27T01:51:01.251Z,20.33
2022-10-27T01:53:35.116Z,20.33
2022-10-27T02:00:05.759Z,20.32
2022-10-27T02:03:08.282Z,20.31
2022-10-27T02:05:49.231Z,20.31
2022-10-27T02:08:30.822Z,20.29
2022-10-27T02:11:04.606Z,20.28
2022-10-27T02:13:32.949Z,20.27
2022-10-27T02:16:05.570Z,20.26
2022-10-27T02:18:45.891Z,20.26
2022-10-27T02:21:15.093Z,20.25
2022-10-27T02:23:42.260Z,20.25
2022-10-27T02:26:25.502Z,20.25
2022-10-27T02:29:01.077Z,20.24
2022-10-27T02:31:33.490Z,20.23
2022-10-27T02:34:01.151Z,20.22
2022-10-27T02:36:27.978Z,20.21
2022-10-27T02:38:54.762Z,20.20
2022-10-27T02:41:21.393Z,20.19
2022-10-27T02:43:48.090Z,20.19
2022-10-27T02:46:15.512Z,20.18
2022-10-27T02:48:42.106Z,20.18
2022-10-27T02:51:08.706Z,20.17
2022-10-27T02:53:35.341Z,20.17
2022-10-27T02:56:01.939Z,20.15
2022-10-27T02:58:30.475Z,20.16
2022-10-27T03:00:57.691Z,20.15
2022-10-27T03:03:24.413Z,20.15
2022-10-27T03:05:51.381Z,20.16
2022-10-27T03:08:18.110Z,20.17
2022-10-27T03:10:45.013Z,20.16
2022-10-27T03:13:11.943Z,20.15
2022-10-27T03:15:38.630Z,20.14
2022-10-27T03:18:05.558Z,20.14
2022-10-27T03:20:32.185Z,20.14
2022-10-27T03:22:58.866Z,20.14
2022-10-27T03:25:25.493Z,20.12
2022-10-27T03:27:52.102Z,20.11
2022-10-27T03:30:18.810Z,20.11
2022-10-27T03:32:50.418Z,20.09
2022-10-27T03:35:19.437Z,20.10
2022-10-27T03:37:46.319Z,20.09
2022-10-27T03:40:13.246Z,20.08
2022-10-27T03:42:43.589Z,20.08
2022-10-27T03:45:11.475Z,20.08
2022-10-27T03:47:38.467Z,20.07
2022-10-27T03:50:06.002Z,20.07
2022-10-27T03:52:33.425Z,20.09
2022-10-27T03:55:00.404Z,20.15
2022-10-27T03:57:27.066Z,20.25
2022-10-27T03:59:53.680Z,20.34
2022-10-27T04:02:24.564Z,20.42
2022-10-27T04:04:51.213Z,20.51
2022-10-27T04:07:17.987Z,20.58
2022-10-27T04:09:45.346Z,20.64
2022-10-27T04:12:13.330Z,20.73
2022-10-27T04:14:39.947Z,20.78
2022-10-27T04:17:06.550Z,20.83
2022-10-27T04:19:33.353Z,20.89
2022-10-27T04:21:59.902Z,20.94
2022-10-27T04:24:26.507Z,20.97
2022-10-27T04:26:53.140Z,21.00
2022-10-27T04:29:19.756Z,21.02
2022-10-27T04:31:46.355Z,21.05
2022-10-27T04:34:12.953Z,21.07
2022-10-27T04:36:39.547Z,21.10
2022-10-27T04:39:06.162Z,21.11
2022-10-27T04:41:32.914Z,21.11
2022-10-27T04:43:59.659Z,21.12
2022-10-27T04:46:26.236Z,21.12
2022-10-27T04:48:52.852Z,21.14
2022-10-27T04:51:22.263Z,21.15
2022-10-27T04:53:50.008Z,21.16
2022-10-27T04:56:17.003Z,21.19
2022-10-27T04:58:43.767Z,21.20
2022-10-27T05:01:12.394Z,21.21
2022-10-27T05:03:39.714Z,21.22
2022-10-27T05:06:06.857Z,21.23
2022-10-27T05:08:34.523Z,21.23
2022-10-27T05:11:01.153Z,21.22
2022-10-27T05:13:27.736Z,21.22
2022-10-27T05:15:59.874Z,21.21
2022-10-27T05:18:26.625Z,21.19
2022-10-27T05:20:53.454Z,21.19
2022-10-27T05:23:20.119Z,21.16
2022-10-27T05:25:51.989Z,21.15
2022-10-27T05:28:18.789Z,21.13
2022-10-27T05:30:45.502Z,21.13
2022-10-27T05:33:12.524Z,21.12
2022-10-27T05:35:39.112Z,21.11
2022-10-27T05:38:05.774Z,21.11
2022-10-27T05:40:34.422Z,21.09
2022-10-27T05:43:02.759Z,21.09
2022-10-27T05:45:29.870Z,21.08
2022-10-27T05:48:01.567Z,21.08
2022-10-27T05:50:29.281Z,21.05
2022-10-27T05:52:56.635Z,21.05
2022-10-27T05:55:24.790Z,21.05
2022-10-27T05:58:00.374Z,21.04
2022-10-27T06:00:32.574Z,21.01
2022-10-27T06:03:03.250Z,21.01
2022-10-27T06:05:31.146Z,20.97
2022-10-27T06:07:58.503Z,20.97
2022-10-27T06:10:25.751Z,20.97
2022-10-27T06:12:52.416Z,20.96
2022-10-27T06:15:19.222Z,20.94
2022-10-27T06:17:45.865Z,20.92
2022-10-27T06:20:12.503Z,20.92
2022-10-27T06:22:39.138Z,20.92
2022-10-27T06:25:06.227Z,20.90
2022-10-27T06:27:32.977Z,20.89
2022-10-27T06:29:59.650Z,20.87
2022-10-27T06:34:57.727Z,20.85
2022-10-27T06:37:24.331Z,20.83
2022-10-27T06:39:51.132Z,20.81
2022-10-27T06:42:17.750Z,20.78
2022-10-27T06:44:45.818Z,20.76
2022-10-27T06:47:12.399Z,20.74
2022-10-27T06:49:38.978Z,20.73
2022-10-27T06:52:05.953Z,20.73
2022-10-27T06:54:32.539Z,20.73
2022-10-27T06:56:59.358Z,20.73
2022-10-27T06:59:31.645Z,20.75
2022-10-27T07:01:58.281Z,20.74
2022-10-27T07:04:25.002Z,20.72
2022-10-27T07:06:51.637Z,20.73
2022-10-27T07:09:18.274Z,20.74
2022-10-27T07:11:44.854Z,20.74
2022-10-27T07:14:11.512Z,20.74
2022-10-27T07:16:38.272Z,20.74
2022-10-27T07:19:04.824Z,20.74
2022-10-27T07:21:31.668Z,20.73
2022-10-27T07:23:58.266Z,20.74
2022-10-27T07:26:24.838Z,20.74
2022-10-27T07:28:51.694Z,20.74
2022-10-27T07:31:18.318Z,20.74
2022-10-27T07:33:45.040Z,20.74
2022-10-27T07:36:11.661Z,20.73
2022-10-27T07:38:39.136Z,20.71
2022-10-27T07:41:06.394Z,20.73
2022-10-27T07:43:33.043Z,20.73
2022-10-27T07:45:59.915Z,20.73
2022-10-27T07:48:26.533Z,20.74
2022-10-27T07:50:53.134Z,20.75
2022-10-27T07:53:19.899Z,20.73
2022-10-27T07:55:46.516Z,20.73
2022-10-27T07:58:17.294Z,20.72
2022-10-27T08:00:47.132Z,20.71
2022-10-27T08:03:26.165Z,20.71
2022-10-27T08:05:53.098Z,20.72
2022-10-27T08:08:20.159Z,20.77
2022-10-27T08:10:49.438Z,20.85
2022-10-27T08:13:16.553Z,20.92
2022-10-27T08:15:48.539Z,20.97
2022-10-27T08:18:15.850Z,21.01
2022-10-27T08:20:47.726Z,21.05
2022-10-27T08:23:16.562Z,21.08
2022-10-27T08:25:43.970Z,21.10
2022-10-27T08:28:11.853Z,21.11
2022-10-27T08:30:45.521Z,21.13
2022-10-27T08:33:18.684Z,21.14
2022-10-27T08:35:45.279Z,21.15
2022-10-27T08:38:13.870Z,21.14
2022-10-27T08:41:24.849Z,21.16
2022-10-27T08:44:12.104Z,21.13
2022-10-27T08:46:49.700Z,21.15
2022-10-27T08:49:51.802Z,21.14
2022-10-27T08:52:31.934Z,21.14
2022-10-27T08:55:04.960Z,21.12
2022-10-27T09:00:12.096Z,21.13
2022-10-27T09:03:19.378Z,21.11
2022-10-27T09:06:24.552Z,21.11
2022-10-27T09:09:20.853Z,21.10
2022-10-27T09:12:39.699Z,21.09
2022-10-27T09:15:32.944Z,21.07
2022-10-27T09:18:16.178Z,21.07
2022-10-27T09:20:55.520Z,21.06
2022-10-27T09:23:47.787Z,21.04
2022-10-27T09:26:19.854Z,21.03
2022-10-27T09:28:52.156Z,21.01
2022-10-27T09:31:25.327Z,21.02
2022-10-27T09:33:58.971Z,21.01
2022-10-27T09:36:25.858Z,21.04
2022-10-27T09:38:52.817Z,21.03
2022-10-27T09:41:19.639Z,21.04
2022-10-27T09:43:58.791Z,21.03
2022-10-27T09:46:28.191Z,21.00
2022-10-27T09:48:58.633Z,21.00
2022-10-27T09:51:40.271Z,21.00
2022-10-27T09:54:28.354Z,21.01
2022-10-27T09:56:56.058Z,20.99
2022-10-27T09:59:23.993Z,20.99
2022-10-27T10:01:59.642Z,20.98
2022-10-27T10:04:32.818Z,20.98
2022-10-27T10:07:02.216Z,20.97
2022-10-27T10:09:34.250Z,20.96
2022-10-27T10:12:23.850Z,20.96
2022-10-27T10:14:51.878Z,20.96
2022-10-27T10:17:24.895Z,20.96
2022-10-27T10:19:53.985Z,20.94
2022-10-27T10:22:32.009Z,20.95
2022-10-27T10:25:02.616Z,20.94
2022-10-27T10:27:33.218Z,20.93
2022-10-27T10:30:05.496Z,20.94
2022-10-27T10:32:36.539Z,20.92
2022-10-27T10:35:42.204Z,20.91
2022-10-27T10:38:29.874Z,20.91
2022-10-27T10:41:13.930Z,20.90
2022-10-27T10:43:41.493Z,20.90
2022-10-27T10:46:20.866Z,20.89
2022-10-27T10:48:57.416Z,20.88
2022-10-27T10:51:32.963Z,20.87
2022-10-27T10:54:18.872Z,20.86
2022-10-27T10:56:52.700Z,20.87
2022-10-27T10:59:23.754Z,20.86
2022-10-27T11:02:18.455Z,20.86
2022-10-27T11:04:49.637Z,20.85
2022-10-27T11:07:28.580Z,20.86
2022-10-27T11:10:10.873Z,20.86
2022-10-27T11:12:43.509Z,20.86
2022-10-27T11:15:48.980Z,20.85
2022-10-27T11:19:06.228Z,20.83
2022-10-27T11:24:36.493Z,20.83
2022-10-27T11:27:12.789Z,20.83
2022-10-27T11:33:11.914Z,20.82
2022-10-27T11:35:48.685Z,20.82
2022-10-27T11:38:25.246Z,20.83
2022-10-27T11:41:08.517Z,20.83
2022-10-27T11:43:44.827Z,20.82
2022-10-27T11:46:23.682Z,20.81
2022-10-27T11:49:01.718Z,20.81
2022-10-27T11:52:21.026Z,20.82
2022-10-27T11:54:48.795Z,20.81
2022-10-27T11:57:43.565Z,20.81
2022-10-27T12:00:25.184Z,20.81
2022-10-27T12:03:19.383Z,20.80
2022-10-27T12:06:16.031Z,20.80
2022-10-27T12:09:30.647Z,20.81
2022-10-27T12:12:29.509Z,20.79
2022-10-27T12:15:32.774Z,20.78
2022-10-27T12:18:28.823Z,20.78
2022-10-27T12:21:42.019Z,20.76
2022-10-27T12:24:35.353Z,20.78
2022-10-27T12:27:29.216Z,20.77
2022-10-27T12:30:04.147Z,20.75
2022-10-27T12:32:39.837Z,20.77
2022-10-27T12:35:40.895Z,20.74
2022-10-27T12:38:33.576Z,20.73
2022-10-27T12:41:23.329Z,20.73
2022-10-27T12:44:27.386Z,20.73
2022-10-27T12:47:29.198Z,20.73
2022-10-27T12:50:11.335Z,20.73
2022-10-27T12:53:15.418Z,20.74
2022-10-27T12:56:20.898Z,20.73
2022-10-27T12:59:30.250Z,20.72
2022-10-27T13:02:01.136Z,20.72
2022-10-27T13:05:12.406Z,20.72
2022-10-27T13:11:44.403Z,20.71
2022-10-27T13:14:37.432Z,20.71
2022-10-27T13:20:58.799Z,20.71
2022-10-27T13:23:42.047Z,20.70
2022-10-27T13:26:54.092Z,20.70
2022-10-27T13:29:49.436Z,20.69
2022-10-27T13:32:53.387Z,20.68
2022-10-27T13:35:40.631Z,20.67
2022-10-27T13:38:33.250Z,20.67
2022-10-27T13:40:59.756Z,20.67
2022-10-27T13:43:44.996Z,20.66
2022-10-27T13:46:11.660Z,20.65
2022-10-27T13:48:45.662Z,20.67
2022-10-27T13:51:48.520Z,20.67
2022-10-27T13:54:57.953Z,20.68
2022-10-27T13:57:52.548Z,20.67
2022-10-27T14:00:22.162Z,20.68
2022-10-27T14:03:15.644Z,20.67
2022-10-27T14:05:49.323Z,20.67
2022-10-27T14:08:35.350Z,20.66
2022-10-27T14:11:10.797Z,20.65
2022-10-27T14:13:43.883Z,20.66
2022-10-27T14:16:20.197Z,20.65
2022-10-27T14:19:02.989Z,20.65
2022-10-27T14:21:33.497Z,20.66
2022-10-27T14:24:10.204Z,20.64
2022-10-27T14:26:37.960Z,20.62
2022-10-27T14:29:05.882Z,20.61
2022-10-27T14:31:33.463Z,20.61
2022-10-27T14:34:36.009Z,20.63
2022-10-27T14:37:03.498Z,20.61
2022-10-27T14:39:37.175Z,20.61
2022-10-27T14:42:20.803Z,20.61
2022-10-27T14:45:02.993Z,20.62
2022-10-27T14:47:30.956Z,20.60
2022-10-27T14:50:31.851Z,20.59
2022-10-27T14:53:00.610Z,20.59
2022-10-27T14:55:38.099Z,20.60
2022-10-27T14:58:06.421Z,20.60
2022-10-27T15:00:35.790Z,20.59
2022-10-27T15:03:05.849Z,20.58
2022-10-27T15:05:46.281Z,20.58
2022-10-27T15:08:22.105Z,20.55
2022-10-27T15:10:52.067Z,20.55
2022-10-27T15:13:26.141Z,20.55
2022-10-27T15:15:58.450Z,20.53
2022-10-27T15:18:27.401Z,20.53
2022-10-27T15:20:55.198Z,20.54
2022-10-27T15:23:22.310Z,20.55
2022-10-27T15:25:56.859Z,20.57
2022-10-27T15:28:29.690Z,20.57
2022-10-27T15:30:56.765Z,20.56
2022-10-27T15:33:43.671Z,20.56
2022-10-27T15:36:22.033Z,20.55
2022-10-27T15:38:50.856Z,20.55
2022-10-27T15:41:27.287Z,20.55
2022-10-27T15:44:25.826Z,20.60
2022-10-27T15:46:52.650Z,20.65
2022-10-27T15:49:27.895Z,20.72
2022-10-27T15:51:59.533Z,20.79
2022-10-27T15:54:35.757Z,20.84
2022-10-27T15:57:04.861Z,20.89
2022-10-27T15:59:33.265Z,20.94
2022-10-27T16:02:05.681Z,20.98
2022-10-27T16:04:43.375Z,21.01
2022-10-27T16:07:32.973Z,21.04
2022-10-27T16:10:00.116Z,21.06
2022-10-27T16:12:38.755Z,21.09
2022-10-27T16:15:14.014Z,21.08
2022-10-27T16:17:44.172Z,21.12
2022-10-27T16:20:18.229Z,21.16
2022-10-27T16:22:46.365Z,21.21
2022-10-27T16:25:15.107Z,21.23
2022-10-27T16:27:41.828Z,21.26
2022-10-27T16:30:18.666Z,21.28
2022-10-27T16:32:47.110Z,21.31
2022-10-27T16:35:18.819Z,21.35
2022-10-27T16:37:45.697Z,21.36
2022-10-27T16:40:16.621Z,21.41
2022-10-27T16:42:52.481Z,21.44
2022-10-27T16:45:20.762Z,21.45
2022-10-27T16:47:50.081Z,21.47
2022-10-27T16:50:17.189Z,21.49
2022-10-27T16:52:43.879Z,21.51
2022-10-27T16:55:12.477Z,21.51
2022-10-27T16:57:41.724Z,21.52
2022-10-27T17:00:13.027Z,21.52
2022-10-27T17:02:39.988Z,21.53
2022-10-27T17:05:07.697Z,21.53
2022-10-27T17:07:36.543Z,21.53
2022-10-27T17:10:07.014Z,21.52
2022-10-27T17:12:33.731Z,21.53
2022-10-27T17:15:00.648Z,21.52
2022-10-27T17:17:27.540Z,21.49
2022-10-27T17:19:54.394Z,21.48
2022-10-27T17:22:21.008Z,21.47
2022-10-27T17:24:47.594Z,21.45
2022-10-27T17:27:14.390Z,21.43
2022-10-27T17:29:42.387Z,21.42
2022-10-27T17:32:09.217Z,21.41
2022-10-27T17:34:35.821Z,21.39
2022-10-27T17:37:02.373Z,21.38
2022-10-27T17:39:28.998Z,21.37
2022-10-27T17:41:55.609Z,21.35
2022-10-27T17:44:22.409Z,21.34
2022-10-27T17:46:50.158Z,21.31
2022-10-27T17:49:16.879Z,21.30
2022-10-27T17:51:43.492Z,21.30
2022-10-27T17:54:12.042Z,21.28
2022-10-27T17:56:39.056Z,21.27
2022-10-27T17:59:13.840Z,21.26
2022-10-27T18:01:40.965Z,21.24
2022-10-27T18:04:10.636Z,21.23
2022-10-27T18:06:38.683Z,21.22
2022-10-27T18:09:06.252Z,21.20
2022-10-27T18:11:35.336Z,21.20
2022-10-27T18:14:05.006Z,21.18
2022-10-27T18:16:34.501Z,21.16
2022-10-27T18:19:06.961Z,21.15
2022-10-27T18:21:36.126Z,21.15
2022-10-27T18:24:03.672Z,21.14
2022-10-27T18:26:35.185Z,21.12
2022-10-27T18:29:02.135Z,21.11
2022-10-27T18:31:33.504Z,21.10
2022-10-27T18:34:00.193Z,21.09
2022-10-27T18:36:27.138Z,21.08
2022-10-27T18:38:59.042Z,21.07
2022-10-27T18:41:28.875Z,21.06
2022-10-27T18:43:55.670Z,21.05
2022-10-27T18:46:23.972Z,21.03
2022-10-27T18:48:55.305Z,21.03
2022-10-27T18:51:22.848Z,21.01
2022-10-27T18:53:54.805Z,21.01
2022-10-27T18:56:22.156Z,21.00
2022-10-27T18:58:53.935Z,21.00
2022-10-27T19:01:22.030Z,20.99
2022-10-27T19:03:53.029Z,20.97
2022-10-27T19:06:19.906Z,20.98
2022-10-27T19:08:46.727Z,20.99
2022-10-27T19:11:15.290Z,21.05
2022-10-27T19:13:41.942Z,21.09
2022-10-27T19:16:12.993Z,21.12
2022-10-27T19:18:39.838Z,21.14
2022-10-27T19:21:10.757Z,21.15
2022-10-27T19:23:37.377Z,21.19
2022-10-27T19:26:10.046Z,21.21
2022-10-27T19:28:38.906Z,21.22
2022-10-27T19:31:06.789Z,21.22
2022-10-27T19:33:33.622Z,21.23
2022-10-27T19:36:15.220Z,21.22
2022-10-27T19:38:43.131Z,21.23
2022-10-27T19:41:16.156Z,21.22
2022-10-27T19:43:45.771Z,21.24
2022-10-27T19:46:17.032Z,21.22
2022-10-27T19:48:43.845Z,21.20
2022-10-27T19:51:17.366Z,21.20
2022-10-27T19:53:46.394Z,21.21
2022-10-27T19:56:13.286Z,21.21
2022-10-27T19:58:39.983Z,21.18
2022-10-27T20:01:18.343Z,21.19
2022-10-27T20:03:45.489Z,21.19
2022-10-27T20:06:12.440Z,21.16
2022-10-27T20:08:40.322Z,21.14
2022-10-27T20:11:15.894Z,21.12
2022-10-27T20:13:48.217Z,21.11
2022-10-27T20:16:20.363Z,21.10
2022-10-27T20:18:47.591Z,21.11
2022-10-27T20:21:17.664Z,21.10
2022-10-27T20:23:45.075Z,21.09
2022-10-27T20:26:30.217Z,21.09
2022-10-27T20:28:58.886Z,21.08
2022-10-27T20:31:26.178Z,21.06
2022-10-27T20:33:52.946Z,21.07
2022-10-27T20:36:19.597Z,21.07
2022-10-27T20:38:46.301Z,21.06
2022-10-27T20:41:15.563Z,21.06
2022-10-27T20:43:42.643Z,21.05
2022-10-27T20:46:09.991Z,21.08
2022-10-27T20:48:37.289Z,21.10
2022-10-27T20:51:06.337Z,21.11
2022-10-27T20:53:34.646Z,21.12
2022-10-27T20:56:01.965Z,21.13
2022-10-27T20:58:29.530Z,21.14
2022-10-27T21:01:34.934Z,21.14
2022-10-27T21:04:04.397Z,21.14
2022-10-27T21:06:33.825Z,21.14
2022-10-27T21:09:02.883Z,21.14
2022-10-27T21:11:29.659Z,21.15
2022-10-27T21:13:59.506Z,21.15
2022-10-27T21:16:26.815Z,21.15
2022-10-27T21:18:56.076Z,21.15
2022-10-27T21:21:25.499Z,21.16
2022-10-27T21:23:52.886Z,21.16
2022-10-27T21:26:20.454Z,21.16
2022-10-27T21:28:54.711Z,21.16
2022-10-27T21:31:23.557Z,21.18
2022-10-27T21:33:51.378Z,21.18
2022-10-27T21:36:18.130Z,21.19
2022-10-27T21:38:49.676Z,21.16
2022-10-27T21:41:21.236Z,21.15
2022-10-27T21:43:51.375Z,21.12
2022-10-27T21:46:21.358Z,21.11
2022-10-27T21:48:48.113Z,21.08
2022-10-27T21:51:15.996Z,21.06
2022-10-27T21:53:43.264Z,21.05
2022-10-27T21:56:11.278Z,21.05
2022-10-27T21:58:38.611Z,21.04
2022-10-27T22:01:17.214Z,21.02
2022-10-27T22:03:44.433Z,21.00
2022-10-27T22:06:24.437Z,20.99
2022-10-27T22:08:51.553Z,20.98
2022-10-27T22:11:23.566Z,20.96
2022-10-27T22:13:50.550Z,20.96
2022-10-27T22:16:19.679Z,20.93
2022-10-27T22:18:47.073Z,20.92
2022-10-27T22:21:15.987Z,20.92
2022-10-27T22:23:43.079Z,20.91
2022-10-27T22:26:15.211Z,20.88
2022-10-27T22:28:42.927Z,20.87
2022-10-27T22:31:13.158Z,20.86
2022-10-27T22:33:43.312Z,20.86
2022-10-27T22:36:14.225Z,20.85
2022-10-27T22:38:41.309Z,20.83
2022-10-27T22:41:13.930Z,20.83
2022-10-27T22:43:40.974Z,20.82
2022-10-27T22:46:09.982Z,20.81
2022-10-27T22:48:36.554Z,20.81
2022-10-27T22:51:06.474Z,20.80
2022-10-27T22:53:36.223Z,20.79
2022-10-27T22:56:09.283Z,20.79
2022-10-27T22:58:35.930Z,20.78
2022-10-27T23:01:08.086Z,20.78
2022-10-27T23:03:34.738Z,20.76
2022-10-27T23:06:01.661Z,20.75
2022-10-27T23:08:28.468Z,20.75
2022-10-27T23:10:56.198Z,20.75
2022-10-27T23:13:23.516Z,20.74
2022-10-27T23:16:00.724Z,20.73
2022-10-27T23:18:28.264Z,20.72
2022-10-27T23:20:59.310Z,20.71
2022-10-27T23:23:27.303Z,20.72
2022-10-27T23:25:54.361Z,20.70
2022-10-27T23:28:21.246Z,20.69
2022-10-27T23:30:48.197Z,20.68
2022-10-27T23:33:15.778Z,20.68
2022-10-27T23:35:42.973Z,20.68
2022-10-27T23:38:10.050Z,20.68
2022-10-27T23:40:36.617Z,20.68
2022-10-27T23:43:03.192Z,20.68
2022-10-27T23:45:30.008Z,20.67
2022-10-27T23:47:56.799Z,20.67
2022-10-27T23:50:23.443Z,20.66
2022-10-27T23:52:50.184Z,20.66
2022-10-27T23:55:17.045Z,20.65
2022-10-27T23:57:43.824Z,20.64
